x

North Equatorial Two - 890 Nm East Of Martinique (41041) Wave Buoy

11:50pm - Sat 22nd Nov 2014 All times are UTC.

  • Sig Wave height 7.2ft
  • Swell Direction
  • Peak Period 8s
  • Average Period 6s
  • Wind
    13mph, 18mph gusts
  • Sea Temp 81°f
  • Air Temp 80°f
  • Sea Pressure 1015.7mb

More Historic Weather Station data

Upgrade to MSW Pro to gain access to the past 30 days of data for over 8000 Wavebouys and Weather Stations around the globe.

Join Pro

Comparision Forecast

View Surf forecast
   
Sat 11/22 11:50pm 7ft 8s 6s 13 18 mph 1015.7mb 81f 80f
10:50pm 8ft 8s 7s 16 20 mph 1015.1mb 81f 80f
9:50pm 8ft 8s 7s 16 20 mph 1014.2mb 81f 80f
8:50pm 7.5ft 8s 7s 18 22 mph 1013.7mb 81f 80f
7:50pm 7.5ft 9s 7s 16 22 mph 1013.2mb 81f 79f
6:50pm 8ft 8s 7s 16 20 mph 1013mb 81f 80f
5:50pm 8ft 8s 7s 16 20 mph 1013mb 81f 80f
4:50pm 9ft 8s 7s 16 20 mph 1013.4mb 81f 80f
3:50pm 9ft 8s 7s 18 22 mph 1014mb 81f 80f
2:50pm 9ft 9s 7s 18 22 mph 1015mb 81f 80f
1:50pm 9ft 8s 7s 20 25 mph 1015.6mb 81f 80f
12:50pm 9ft 8s 7s 18 22 mph 1016mb 81f 79f
11:50am 8ft 9s 7s 18 22 mph 1015.6mb 81f 78f
10:50am 9.5ft 9s 7s 18 22 mph 1014.8mb 81f 80f
9:50am 9ft 8s 7s 18 22 mph 1014mb 81f 80f
8:50am 8.5ft 8s 7s 18 22 mph 1013.4mb 81f 79f
7:50am 8ft 9s 7s 18 22 mph 1013mb 81f 79f
6:50am 9ft 9s 7s 20 25 mph 1012.8mb 81f 79f
5:50am 9ft 8s 7s 20 22 mph 1013.1mb 81f 80f
4:50am 9ft 9s 7s 20 22 mph 1013.7mb 81f 79f
3:50am 9ft 8s 7s 20 25 mph 1014.4mb 81f 80f
2:50am 8.5ft 9s 6s 20 22 mph 1014.9mb 81f 80f
1:50am 9ft 9s 6s 22 27 mph 1014.9mb 81f 80f
12:50am 9.5ft 9s 7s 22 25 mph 1014.8mb 81f 80f
Fri 11/21 11:50pm 10ft 8s 7s 22 27 mph 1014.8mb 81f 80f
10:50pm 9.5ft 8s 6s 22 27 mph 1014.6mb 81f 80f
9:50pm 10.5ft 8s 7s 25 29 mph 1013.8mb 81f 80f
8:50pm 10ft 8s 6s 25 29 mph 1013mb 81f 80f
7:50pm 9.5ft 9s 7s 25 29 mph 1012.8mb 81f 80f
6:50pm 9ft 8s 7s 22 29 mph 1012.6mb 81f 80f
5:50pm 10ft 8s 6s 25 29 mph 1012.4mb 81f 80f
4:50pm 9.5ft 8s 6s 22 29 mph 1012.9mb 81f 80f
3:50pm 9ft 8s 6s 25 29 mph 1013.5mb 81f 80f
2:50pm 9.5ft 8s 6s 25 29 mph 1014.2mb 81f 80f
1:50pm 10.5ft 8s 6s 27 31 mph 1014.7mb 81f 80f
12:50pm 10ft 9s 6s 27 31 mph 1015.3mb 81f 80f
11:50am 10ft 8s 6s 27 31 mph 1015mb 81f 80f
10:50am 9.5ft 9s 6s 25 29 mph 1014.9mb 81f 80f
9:50am 11ft 8s 7s 25 29 mph 1014.4mb 81f 80f
8:50am 11ft 9s 7s 27 34 mph 1013.9mb 81f 80f
7:50am 11ft 8s 7s 25 31 mph 1013.7mb 81f 80f
6:50am 10ft 8s 7s 25 29 mph 1013.5mb 81f 79f
5:50am 10ft 9s 7s 22 29 mph 1013.7mb 81f 79f
4:50am 10.5ft 10s 7s 27 31 mph 1014.1mb 81f 80f
3:50am 11ft 9s 7s 25 29 mph 1014.6mb 81f 80f
2:50am 10ft 9s 7s 25 31 mph 1015.1mb 81f 79f
1:50am 10ft 9s 6s 20 25 mph 1015.8mb 81f 78f
12:50am 11ft 10s 7s 25 31 mph 1015.6mb 81f 78f
Thu 11/20 11:50pm 10ft 9s 7s 20 22 mph 1015.8mb 81f 77f
10:50pm 10ft 10s 7s 25 31 mph 1015mb 81f 80f
9:50pm 10.5ft 10s 7s 22 29 mph 1014.4mb 82f 80f
8:50pm 10ft 8s 7s 22 27 mph 1014.1mb 82f 80f
7:50pm 11ft 8s 7s 22 29 mph 1013.5mb 82f 80f
6:50pm 10ft 10s 7s 25 29 mph 1013.2mb 82f 80f
5:50pm 11ft 8s 7s 22 29 mph 1013.3mb 82f 80f
4:50pm 9.5ft 11s 7s 22 29 mph 1014mb 82f 78f
3:50pm 10ft 9s 7s 25 29 mph 1014.4mb 82f 79f
2:50pm 11ft 9s 7s 20 27 mph 1015.1mb 82f 80f
1:50pm 10.5ft 9s 7s 25 31 mph 1015.7mb 82f 80f
12:50pm 11ft 10s 7s 22 27 mph 1016.3mb 82f 80f
11:50am 12ft 9s 7s 25 29 mph 1016.3mb 81f 79f
10:50am 10ft 8s 7s 25 29 mph 1015.9mb 81f 80f
9:50am 10.5ft 8s 7s 25 29 mph 1015.2mb 81f 80f
8:50am 11ft 9s 7s 25 29 mph 1014.6mb 81f 80f
7:50am 11ft 8s 7s 25 31 mph 1014mb 82f 80f
6:50am 10ft 8s 7s 25 29 mph 1013.9mb 82f 81f
5:50am 11ft 8s 7s 25 31 mph 1014.1mb 82f 81f
4:50am 11ft 9s 7s 25 29 mph 1014.4mb 82f 80f
3:50am 10ft 8s 7s 27 31 mph 1014.7mb 82f 81f
2:50am 10ft 8s 7s 25 29 mph 1015mb 82f 81f
1:50am 10ft 8s 7s 22 27 mph 1015.4mb 82f 79f
12:50am 10.5ft 8s 7s 29 36 mph 1015.4mb 82f 79f
Wed 11/19 11:50pm 10ft 9s 7s 18 25 mph 1015.9mb 82f 78f
10:50pm 9ft 8s 6s 25 29 mph 1015.2mb 82f 80f
9:50pm 10ft 8s 7s 29 36 mph 1014.7mb 82f 76f
8:50pm 10ft 8s 7s 27 36 mph 1014mb 82f 78f
7:50pm 10.5ft 8s 6s 29 45 mph 1013.4mb 82f 79f
6:50pm 11ft 8s 7s 27 34 mph 1013.1mb 82f 79f
5:50pm 11ft 8s 7s 27 36 mph 1013.2mb 82f 80f
4:50pm 10ft 8s 7s 27 31 mph 1013.2mb 82f 81f
3:50pm 10ft 8s 7s 25 29 mph 1014.3mb 82f 79f
2:50pm 10ft 8s 6s 22 29 mph 1015.1mb 82f 80f
1:50pm 10.5ft 8s 6s 25 29 mph 1015.6mb 82f 79f
12:50pm 9.5ft 8s 6s 27 36 mph 1015.7mb 82f 77f
11:50am 9ft 8s 6s 27 36 mph 1015.2mb 82f 78f
10:50am 10ft 8s 6s 27 40 mph 1014.6mb 82f 78f
9:50am 9ft 8s 6s 25 34 mph 1014mb 82f 80f
8:50am 9ft 8s 6s 27 34 mph 1013.7mb 82f 79f
7:50am 9ft 7s 6s 29 34 mph 1012.9mb 82f 80f
6:50am 8ft 7s 6s 25 29 mph 1013mb 82f 80f
5:50am 8ft 7s 6s 27 31 mph 1012.8mb 82f 80f
4:50am 7.5ft 7s 6s 22 27 mph 1013.8mb 82f 79f
3:50am 7.5ft 8s 6s 27 34 mph 1014.7mb 82f 76f
2:50am 7.5ft 14s 6s 22 27 mph 1015mb 82f 80f
1:50am 7.5ft 15s 6s 22 27 mph 1015.3mb 82f 79f